Time;durP1;ratioP1;P1;durP2;ratioP2;P2;SDS_P1;SDS_P2;PMS_P1;PMS_P2;Temp;Humidity;BMP_temperature;BMP_pressure;BME280_temperature;BME280_humidity;BME280_pressure;Samples;Min_cycle;Max_cycle;Signal;HPM_P1;HPM_P2
2023/06/07 00:02:14;;;;;;;5.65;2.22;;;13.80;99.90;;;12.08;100.00;97758.88;5011800;28;20057;-77
2023/06/07 00:04:58;;;;;;;4.22;2.10;;;13.70;99.90;;;12.05;100.00;97766.81;5011054;28;20058;-77
2023/06/07 00:07:25;;;;;;;4.18;1.75;;;13.60;99.90;;;12.04;100.00;97766.00;5007852;28;20064;-77
2023/06/07 00:09:53;;;;;;;4.93;2.05;;;13.60;99.90;;;12.04;100.00;97765.13;4994503;28;20513;-77
2023/06/07 00:12:20;;;;;;;4.65;1.80;;;13.50;99.90;;;11.92;100.00;97758.72;4989744;28;20163;-77
2023/06/07 00:14:47;;;;;;;3.42;1.77;;;13.50;99.90;;;11.93;100.00;97760.44;5004526;28;20561;-77
2023/06/07 00:17:15;;;;;;;5.47;1.98;;;13.40;99.90;;;11.82;100.00;97754.84;5005406;28;20053;-77
2023/06/07 00:19:43;;;;;;;4.05;2.17;;;13.30;99.90;;;11.82;100.00;97762.63;5007660;28;20145;-77
2023/06/07 00:22:12;;;;;;;6.35;1.75;;;13.30;99.90;;;11.78;100.00;97758.47;5005376;28;21036;-77
2023/06/07 00:24:40;;;;;;;6.05;2.30;;;13.20;99.90;;;11.76;100.00;97755.09;4984913;28;20494;-77
2023/06/07 00:27:07;;;;;;;4.32;2.25;;;13.20;99.90;;;11.71;100.00;97757.91;4988783;28;20065;-77
2023/06/07 00:29:35;;;;;;;5.85;2.17;;;13.10;99.90;;;11.66;100.00;97760.72;4989725;28;20060;-76
2023/06/07 00:32:03;;;;;;;4.63;2.08;;;13.10;99.90;;;11.67;100.00;97762.38;5005403;28;20046;-77
2023/06/07 00:34:30;;;;;;;4.30;2.25;;;13.10;99.90;;;11.73;100.00;97761.28;5006211;28;20143;-77
2023/06/07 00:36:57;;;;;;;3.53;1.70;;;13.10;99.90;;;11.61;100.00;97770.47;5009047;28;20137;-77
2023/06/07 00:39:24;;;;;;;4.78;1.70;;;13.00;99.90;;;11.74;100.00;97768.16;4992517;28;20042;-77
2023/06/07 00:41:52;;;;;;;5.35;2.00;;;13.00;99.90;;;11.93;100.00;97769.06;4986579;28;20502;-77
2023/06/07 00:44:20;;;;;;;7.50;1.98;;;13.10;99.90;;;11.91;100.00;97765.69;5008103;28;20041;-77
2023/06/07 00:46:47;;;;;;;3.53;1.70;;;13.20;99.90;;;11.91;100.00;97770.91;5010538;28;20046;-77
2023/06/07 00:49:17;;;;;;;5.18;2.13;;;13.20;99.90;;;11.86;100.00;97766.75;4992409;28;20081;-77
2023/06/07 00:51:45;;;;;;;7.05;2.40;;;13.20;99.90;;;11.57;100.00;97768.06;4991656;28;20077;-77
2023/06/07 00:54:17;;;;;;;4.00;1.85;;;13.10;99.90;;;11.72;100.00;97762.16;5007330;28;20498;-77
2023/06/07 00:56:49;;;;;;;4.97;2.33;;;13.10;99.90;;;11.51;100.00;97763.97;5009817;28;20050;-77
2023/06/07 00:59:22;;;;;;;3.65;1.85;;;13.00;99.90;;;11.55;100.00;97760.31;4999058;28;20509;-77
2023/06/07 01:01:55;;;;;;;8.75;1.80;;;12.90;99.90;;;11.61;100.00;97761.81;5010400;28;20513;-77
2023/06/07 01:04:24;;;;;;;6.88;2.20;;;12.90;99.90;;;11.65;100.00;97761.59;4991116;28;20046;-77
2023/06/07 01:06:52;;;;;;;4.32;2.30;;;12.90;99.90;;;11.59;100.00;97761.06;4986876;28;20141;-77
2023/06/07 01:09:20;;;;;;;3.78;1.95;;;12.90;99.90;;;11.57;100.00;97755.91;5001274;28;20094;-77
2023/06/07 01:11:50;;;;;;;3.22;1.58;;;12.90;99.90;;;11.62;100.00;97760.91;5007708;28;20104;-77
2023/06/07 01:14:19;;;;;;;4.63;2.13;;;12.90;99.90;;;11.65;100.00;97759.00;5000293;28;20045;-77
2023/06/07 01:16:50;;;;;;;8.57;2.10;;;12.90;99.90;;;11.56;100.00;97753.38;4984992;28;20050;-77
2023/06/07 01:19:22;;;;;;;4.60;2.00;;;12.90;99.90;;;11.54;100.00;97755.19;4986721;28;20053;-77
2023/06/07 01:21:52;;;;;;;7.22;2.00;;;12.90;99.90;;;11.51;100.00;97759.59;5012202;28;20081;-77
2023/06/07 01:24:20;;;;;;;3.72;1.92;;;12.80;99.90;;;11.52;100.00;97757.88;5005809;28;20054;-77
2023/06/07 01:26:53;;;;;;;4.68;2.42;;;12.80;99.90;;;11.49;100.00;97748.47;5013568;28;20056;-77
2023/06/07 01:29:21;;;;;;;3.25;1.75;;;12.80;99.90;;;11.57;100.00;97752.47;5004390;28;20585;-78
2023/06/07 01:31:49;;;;;;;4.38;1.83;;;12.80;99.90;;;11.59;100.00;97743.69;4994686;28;20217;-77
2023/06/07 01:34:19;;;;;;;4.30;2.30;;;12.80;99.90;;;11.62;100.00;97747.91;4995027;28;20052;-77
2023/06/07 01:36:48;;;;;;;4.75;2.50;;;12.90;99.90;;;11.79;100.00;97740.22;4991953;28;20041;-77
2023/06/07 01:39:17;;;;;;;5.03;2.05;;;12.90;99.90;;;11.73;100.00;97743.06;4973204;28;20077;-77
2023/06/07 01:41:46;;;;;;;5.18;2.03;;;12.90;99.90;;;11.87;100.00;97743.31;4974753;28;20478;-77
2023/06/07 01:44:14;;;;;;;3.88;1.85;;;13.00;99.90;;;11.71;100.00;97747.50;4978319;28;20074;-76
2023/06/07 01:46:45;;;;;;;5.03;2.15;;;13.00;99.90;;;11.63;100.00;97753.06;5005684;28;20060;-77
2023/06/07 01:49:16;;;;;;;4.22;2.30;;;12.90;99.90;;;11.56;100.00;97742.97;5009290;28;20053;-77
2023/06/07 01:51:43;;;;;;;3.97;2.00;;;12.90;99.90;;;11.41;100.00;97749.69;4980624;28;20052;-77
2023/06/07 01:54:12;;;;;;;5.75;2.03;;;12.90;99.90;;;11.33;100.00;97752.59;5006120;28;20046;-77
2023/06/07 01:57:03;;;;;;;4.95;2.47;;;12.80;99.90;;;11.61;100.00;97751.41;5008467;28;20148;-77
2023/06/07 02:00:20;;;;;;;4.38;2.15;;;12.80;99.90;;;11.61;100.00;97752.28;5006116;28;20140;-76
2023/06/07 02:02:56;;;;;;;4.32;2.20;;;12.80;99.90;;;11.49;100.00;97747.59;4992835;28;20104;-77
2023/06/07 02:05:38;;;;;;;4.82;2.45;;;12.80;99.90;;;11.42;100.00;97756.56;4994772;28;20053;-77
2023/06/07 02:08:16;;;;;;;3.47;1.77;;;12.80;99.90;;;11.42;100.00;97752.19;5006501;28;20151;-77
2023/06/07 02:10:46;;;;;;;5.93;2.28;;;12.80;99.90;;;11.37;100.00;97753.31;4988388;28;20118;-77
2023/06/07 02:13:16;;;;;;;4.50;2.10;;;12.70;99.90;;;11.29;100.00;97751.91;4977633;28;20038;-77
2023/06/07 02:15:47;;;;;;;4.32;2.67;;;12.60;99.90;;;11.08;100.00;97750.19;5001548;28;20129;-77
2023/06/07 02:18:19;;;;;;;7.15;2.30;;;12.60;99.90;;;11.30;100.00;97753.59;4981372;28;20511;-78
2023/06/07 02:20:47;;;;;;;3.88;2.13;;;12.60;99.90;;;11.26;100.00;97752.03;4990491;28;20157;-77
2023/06/07 02:23:14;;;;;;;6.32;2.35;;;12.60;99.90;;;11.21;100.00;97751.38;5003572;28;20069;-77
2023/06/07 02:25:41;;;;;;;4.70;2.30;;;12.60;99.90;;;11.08;100.00;97751.06;4970648;28;20091;-78
2023/06/07 02:28:09;;;;;;;5.60;2.72;;;12.60;99.90;;;11.20;100.00;97754.91;4999381;28;20058;-77
2023/06/07 02:30:36;;;;;;;4.32;2.17;;;12.50;99.90;;;11.05;100.00;97756.38;5006188;28;20042;-77
2023/06/07 02:33:04;;;;;;;5.57;2.35;;;12.40;99.90;;;11.01;100.00;97757.41;5002787;28;20481;-77
2023/06/07 02:35:31;;;;;;;4.43;1.75;;;12.40;99.90;;;11.01;100.00;97751.38;5001639;28;20054;-77
2023/06/07 02:38:01;;;;;;;4.28;2.30;;;12.40;99.90;;;10.86;100.00;97758.06;4985421;28;20050;-77
2023/06/07 02:40:28;;;;;;;3.65;2.15;;;12.30;99.90;;;10.99;100.00;97758.38;5004504;28;20046;-76
2023/06/07 02:42:55;;;;;;;8.73;2.25;;;12.30;99.90;;;11.04;100.00;97759.88;5002268;28;20554;-77
2023/06/07 02:45:22;;;;;;;4.93;2.55;;;12.30;99.90;;;10.98;100.00;97762.72;4988692;28;20081;-77
2023/06/07 02:47:50;;;;;;;4.63;2.45;;;12.30;99.90;;;10.98;100.00;97759.28;4986011;28;20801;-77
2023/06/07 02:50:18;;;;;;;3.95;2.38;;;12.30;99.90;;;11.01;100.00;97757.41;4997858;28;20052;-76
2023/06/07 02:52:45;;;;;;;4.88;2.63;;;12.30;99.90;;;11.17;100.00;97760.19;4978131;28;20053;-77
2023/06/07 02:55:13;;;;;;;4.57;2.35;;;12.30;99.90;;;11.22;100.00;97758.28;4994870;28;20048;-77
2023/06/07 02:57:41;;;;;;;5.25;2.80;;;12.40;99.90;;;11.24;100.00;97758.19;4994653;28;20061;-77
2023/06/07 03:00:10;;;;;;;4.43;2.08;;;12.50;99.90;;;11.17;100.00;97757.59;5009131;28;20053;-76
2023/06/07 03:02:38;;;;;;;5.70;2.22;;;12.40;99.90;;;11.15;100.00;97754.22;4987670;28;20050;-77
2023/06/07 03:05:07;;;;;;;3.88;2.05;;;12.40;99.90;;;11.23;100.00;97754.75;4987140;28;20579;-77
2023/06/07 03:07:35;;;;;;;4.18;2.35;;;12.40;99.90;;;11.03;100.00;97760.78;4990559;28;20053;-77
2023/06/07 03:10:06;;;;;;;4.03;2.20;;;12.30;99.90;;;11.04;100.00;97754.69;4988030;28;20530;-77
2023/06/07 03:12:33;;;;;;;5.68;2.40;;;12.30;99.90;;;10.82;100.00;97759.06;5002613;28;20165;-76
2023/06/07 03:15:00;;;;;;;3.40;2.20;;;12.20;99.90;;;10.80;100.00;97761.72;5003603;28;20052;-77
2023/06/07 03:17:28;;;;;;;4.82;2.22;;;12.20;99.90;;;10.74;100.00;97763.72;5004535;28;20046;-76
2023/06/07 03:19:56;;;;;;;6.03;2.08;;;12.20;99.90;;;10.66;100.00;97774.44;5004410;28;20042;-77
2023/06/07 03:22:24;;;;;;;6.07;2.80;;;12.10;99.90;;;10.52;100.00;97774.97;4985080;28;20085;-77
2023/06/07 03:24:54;;;;;;;5.90;2.65;;;12.00;99.90;;;10.61;100.00;97784.16;5002997;28;20105;-77
2023/06/07 03:27:23;;;;;;;6.32;2.75;;;12.00;99.90;;;10.57;100.00;97778.22;4984097;28;20052;-76
2023/06/07 03:29:51;;;;;;;4.55;2.58;;;12.00;99.90;;;10.60;100.00;97783.28;5006835;28;20041;-76
2023/06/07 03:32:18;;;;;;;6.55;2.42;;;11.90;99.90;;;10.27;100.00;97788.00;5005572;28;20168;-77
2023/06/07 03:34:45;;;;;;;8.15;2.72;;;11.80;99.90;;;10.26;100.00;97786.31;4997115;28;20050;-77
2023/06/07 03:37:16;;;;;;;6.63;2.20;;;11.80;99.90;;;10.39;100.00;97790.16;4983393;28;20133;-77
2023/06/07 03:39:43;;;;;;;12.48;3.17;;;11.70;99.90;;;10.34;100.00;97792.09;4974714;28;20105;-77
2023/06/07 03:42:10;;;;;;;10.82;2.70;;;11.70;99.90;;;10.42;100.00;97802.16;5008383;28;20101;-77
2023/06/07 03:44:38;;;;;;;4.43;2.20;;;11.70;99.90;;;10.31;100.00;97791.34;4988850;28;20505;-77
2023/06/07 03:47:05;;;;;;;7.35;2.80;;;11.70;99.90;;;10.17;100.00;97792.72;5005894;28;20049;-77
2023/06/07 03:49:32;;;;;;;6.25;2.85;;;11.60;99.90;;;10.18;100.00;97796.16;5010399;28;20119;-76
2023/06/07 03:51:59;;;;;;;6.63;2.78;;;11.50;99.90;;;10.13;100.00;97806.69;5002103;28;20095;-77
2023/06/07 03:54:26;;;;;;;6.95;2.50;;;11.50;99.90;;;10.17;100.00;97808.28;4985524;28;20051;-76
2023/06/07 03:56:53;;;;;;;6.72;3.15;;;11.50;99.90;;;10.30;100.00;97813.88;4984454;28;20042;-76
2023/06/07 03:59:21;;;;;;;7.60;3.22;;;11.60;99.90;;;10.39;100.00;97816.09;4996531;28;20510;-77
2023/06/07 04:01:50;;;;;;;8.05;2.40;;;11.60;99.90;;;10.58;100.00;97815.41;5005663;28;20054;-77
2023/06/07 04:04:17;;;;;;;7.63;2.67;;;11.70;99.90;;;10.41;100.00;97803.94;4987740;28;20045;-77
2023/06/07 04:06:44;;;;;;;4.28;2.13;;;11.70;99.90;;;10.41;100.00;97816.91;5000376;28;20525;-77
2023/06/07 04:09:15;;;;;;;4.80;2.40;;;11.70;99.90;;;10.55;100.00;97815.53;5010822;28;20049;-77
2023/06/07 04:11:42;;;;;;;4.22;1.83;;;11.70;99.90;;;10.73;100.00;97819.16;5005066;28;20520;-77
2023/06/07 04:14:09;;;;;;;3.75;2.08;;;11.80;99.90;;;10.72;100.00;97813.13;5009025;28;20176;-76
2023/06/07 04:16:36;;;;;;;7.20;2.30;;;11.80;99.90;;;10.73;100.00;97803.59;4995455;28;20426;-77
2023/06/07 04:19:03;;;;;;;4.10;2.30;;;11.90;99.90;;;10.59;100.00;97796.34;4993787;28;20054;-77
2023/06/07 04:21:30;;;;;;;5.78;2.65;;;11.90;99.90;;;10.70;100.00;97801.97;4996537;28;20058;-78
2023/06/07 04:23:57;;;;;;;10.82;2.70;;;11.90;99.90;;;10.83;100.00;97787.59;5013395;28;20061;-78
2023/06/07 04:26:25;;;;;;;9.77;2.60;;;12.00;99.90;;;10.99;100.00;97793.00;4995244;28;20065;-77
2023/06/07 04:28:56;;;;;;;3.38;2.25;;;12.00;99.90;;;11.15;100.00;97793.19;5011399;28;20513;-77
2023/06/07 04:31:29;;;;;;;7.82;1.85;;;12.10;99.90;;;11.41;100.00;97788.69;4997213;28;20045;-77
2023/06/07 04:33:57;;;;;;;4.78;2.20;;;12.20;99.90;;;11.26;100.00;97788.41;5008930;28;20049;-77
2023/06/07 04:36:25;;;;;;;5.70;2.65;;;12.20;99.90;;;11.48;100.00;97790.94;5006956;28;20135;-77
2023/06/07 04:39:02;;;;;;;6.20;2.45;;;12.30;99.90;;;11.64;100.00;97790.28;4992030;28;20054;-76
2023/06/07 04:41:32;;;;;;;5.18;2.38;;;12.40;99.90;;;11.92;100.00;97782.97;5000983;28;20050;-78
2023/06/07 04:44:07;;;;;;;7.15;3.55;;;12.50;99.90;;;11.95;100.00;97774.22;4990835;28;20445;-77
2023/06/07 04:46:39;;;;;;;7.07;3.22;;;12.60;99.90;;;11.83;100.00;97775.53;4995688;28;20142;-77
2023/06/07 04:49:08;;;;;;;6.32;2.78;;;12.60;99.90;;;11.98;100.00;97773.22;5002970;28;20050;-76
2023/06/07 04:51:35;;;;;;;5.75;3.42;;;12.80;99.90;;;12.09;100.00;97778.78;5007989;28;20100;-77
2023/06/07 04:54:04;;;;;;;8.30;3.08;;;12.90;99.90;;;12.30;100.00;97774.34;4990147;28;20042;-77
2023/06/07 04:56:31;;;;;;;6.53;2.60;;;13.10;99.90;;;12.30;100.00;97787.38;5003366;28;20188;-77
2023/06/07 04:58:58;;;;;;;4.72;2.60;;;13.20;99.90;;;12.45;100.00;97788.41;4985892;28;20062;-77
2023/06/07 05:01:30;;;;;;;5.43;2.60;;;13.30;99.90;;;12.55;100.00;97777.50;4986345;28;20218;-77
2023/06/07 05:04:00;;;;;;;3.75;2.28;;;13.40;99.90;;;12.74;100.00;97779.22;4999302;28;20066;-77
2023/06/07 05:06:28;;;;;;;5.75;2.42;;;13.50;99.90;;;12.81;100.00;97785.81;5002952;28;20057;-77
2023/06/07 05:08:56;;;;;;;4.78;2.42;;;13.60;99.90;;;12.76;100.00;97775.59;4986056;28;20038;-77
2023/06/07 05:11:23;;;;;;;3.70;2.38;;;13.70;99.90;;;12.75;100.00;97786.97;4998590;28;20486;-77
2023/06/07 05:13:50;;;;;;;4.35;2.05;;;13.70;99.90;;;12.96;100.00;97787.69;5002366;28;20046;-77
2023/06/07 05:16:18;;;;;;;6.68;2.40;;;13.80;99.90;;;13.17;100.00;97784.94;4988043;28;20640;-78
2023/06/07 05:18:49;;;;;;;3.30;2.00;;;13.90;99.90;;;13.31;100.00;97776.44;4982946;28;20051;-78
2023/06/07 05:21:16;;;;;;;6.07;2.28;;;14.00;99.90;;;13.55;100.00;97779.59;4973435;28;20065;-77
2023/06/07 05:23:44;;;;;;;4.50;2.58;;;14.20;99.90;;;13.78;100.00;97773.19;4992147;28;20107;-76
2023/06/07 05:26:12;;;;;;;5.65;2.22;;;14.40;99.90;;;14.06;100.00;97775.16;5000509;28;20053;-77
2023/06/07 05:28:39;;;;;;;3.40;2.22;;;14.50;99.90;;;14.34;100.00;97773.66;5007370;28;20045;-77
2023/06/07 05:31:06;;;;;;;7.55;2.40;;;14.80;99.90;;;14.57;100.00;97757.63;5008662;28;20145;-76
2023/06/07 05:33:37;;;;;;;3.90;2.15;;;15.00;99.90;;;14.74;100.00;97754.03;5009165;28;20053;-77
2023/06/07 05:36:04;;;;;;;4.38;1.90;;;15.20;99.90;;;14.93;100.00;97739.91;5016291;28;20042;-77
2023/06/07 05:38:31;;;;;;;5.63;1.92;;;15.40;99.90;;;15.24;100.00;97746.84;4994499;28;20141;-77
2023/06/07 05:40:58;;;;;;;4.78;1.92;;;15.70;99.90;;;15.48;100.00;97745.34;4996208;28;20121;-77
2023/06/07 05:43:25;;;;;;;4.43;2.20;;;15.90;99.90;;;15.65;100.00;97738.28;5006469;28;20120;-76
2023/06/07 05:45:53;;;;;;;5.60;1.88;;;16.00;99.90;;;15.91;100.00;97736.72;4997506;28;20042;-74
2023/06/07 05:48:20;;;;;;;3.03;1.83;;;16.30;99.90;;;16.10;100.00;97737.28;5001419;28;20460;-76
2023/06/07 05:50:47;;;;;;;4.28;1.85;;;16.40;99.90;;;16.25;100.00;97732.84;5003678;28;20046;-75
2023/06/07 05:53:14;;;;;;;3.70;1.80;;;16.60;99.90;;;16.38;100.00;97724.22;5007027;28;20503;-75
2023/06/07 05:55:45;;;;;;;4.32;1.75;;;16.80;99.90;;;16.78;100.00;97724.25;4998863;28;20042;-76
2023/06/07 05:58:12;;;;;;;3.72;1.60;;;17.00;99.90;;;16.94;100.00;97714.47;5004897;28;20056;-75
2023/06/07 06:00:40;;;;;;;5.03;1.80;;;17.20;99.90;;;17.21;100.00;97711.78;4987856;28;20073;-74
2023/06/07 06:03:08;;;;;;;2.85;1.75;;;17.40;99.90;;;17.48;100.00;97708.22;5013090;28;20084;-75
2023/06/07 06:05:35;;;;;;;3.88;1.77;;;17.60;99.90;;;17.54;100.00;97713.06;5007131;28;20491;-75
2023/06/07 06:08:03;;;;;;;3.78;1.73;;;17.70;99.90;;;17.37;100.00;97713.38;5006786;28;20049;-76
2023/06/07 06:10:30;;;;;;;2.35;1.50;;;17.90;99.90;;;17.70;100.00;97712.84;4981556;28;20133;-75
2023/06/07 06:13:01;;;;;;;3.45;1.70;;;18.00;99.90;;;17.73;100.00;97718.72;5001558;28;20402;-76
2023/06/07 06:15:28;;;;;;;5.35;2.42;;;18.20;99.90;;;17.40;100.00;97718.41;4985834;28;20576;-75
2023/06/07 06:17:56;;;;;;;6.55;2.40;;;18.10;99.90;;;17.47;100.00;97715.28;4990079;28;20073;-76
2023/06/07 06:20:23;;;;;;;5.63;2.00;;;18.10;99.90;;;17.33;100.00;97716.22;4987280;28;20053;-76
2023/06/07 06:22:50;;;;;;;5.65;2.20;;;18.10;99.90;;;17.35;100.00;97716.09;5003625;28;20522;-76
2023/06/07 06:25:17;;;;;;;6.15;2.40;;;18.10;99.90;;;17.22;100.00;97715.22;4984517;28;20061;-75
2023/06/07 06:27:44;;;;;;;6.93;2.38;;;17.80;99.90;;;17.37;100.00;97711.59;5004560;28;20073;-75
2023/06/07 06:30:12;;;;;;;6.03;2.30;;;17.90;99.90;;;17.46;100.00;97721.44;5005732;28;20502;-76
2023/06/07 06:32:39;;;;;;;5.28;2.47;;;18.00;99.90;;;17.14;100.00;97726.25;5001481;28;20072;-76
2023/06/07 06:35:08;;;;;;;6.05;1.88;;;17.80;99.90;;;17.19;100.00;97731.19;4990969;28;20057;-75
2023/06/07 06:37:35;;;;;;;6.18;2.55;;;17.90;99.90;;;17.43;100.00;97731.34;4967282;28;20144;-76
2023/06/07 06:40:04;;;;;;;4.65;2.40;;;18.00;99.90;;;17.12;100.00;97738.63;4991159;28;20060;-76
2023/06/07 06:42:32;;;;;;;4.32;2.20;;;18.10;99.90;;;17.26;100.00;97732.44;5004126;28;20060;-75
2023/06/07 06:44:59;;;;;;;4.70;2.33;;;18.00;99.90;;;17.01;100.00;97735.88;4981907;28;20133;-76
2023/06/07 06:47:26;;;;;;;5.97;2.58;;;17.90;99.90;;;17.28;100.00;97733.19;5006861;28;20077;-76
2023/06/07 06:49:54;;;;;;;7.00;2.50;;;17.90;99.90;;;17.44;100.00;97733.00;4986750;28;20069;-76
2023/06/07 06:52:24;;;;;;;5.30;2.55;;;18.00;99.90;;;17.65;100.00;97746.44;5001623;28;20050;-76
2023/06/07 06:54:51;;;;;;;4.80;2.38;;;18.10;99.90;;;17.85;100.00;97747.72;4987811;28;20054;-75
2023/06/07 06:57:18;;;;;;;6.43;2.13;;;18.30;99.90;;;17.87;100.00;97751.09;4982916;28;20046;-77
2023/06/07 06:59:45;;;;;;;6.22;2.08;;;18.30;99.90;;;18.08;100.00;97743.47;4969825;28;20081;-76
2023/06/07 07:02:16;;;;;;;3.30;2.10;;;18.50;99.90;;;18.16;100.00;97749.88;4980985;28;20065;-77
2023/06/07 07:04:43;;;;;;;6.90;2.00;;;18.70;99.90;;;18.41;100.00;97747.31;4983412;28;20478;-75
2023/06/07 07:07:11;;;;;;;4.38;2.13;;;18.90;99.90;;;18.32;100.00;97738.28;4998874;28;20155;-76
2023/06/07 07:09:38;;;;;;;4.88;2.30;;;19.00;99.90;;;18.53;100.00;97735.91;4983049;28;20050;-76
2023/06/07 07:12:06;;;;;;;4.13;1.80;;;19.20;99.90;;;18.72;100.00;97735.38;4995017;28;20126;-77
2023/06/07 07:14:33;;;;;;;3.28;1.70;;;19.30;99.90;;;18.76;100.00;97736.84;5003424;28;20105;-76
2023/06/07 07:17:00;;;;;;;3.47;1.75;;;19.40;99.90;;;18.81;100.00;97737.38;4986819;28;20050;-78
2023/06/07 07:19:29;;;;;;;3.20;1.95;;;19.50;99.90;;;18.81;100.00;97737.38;5000214;28;20330;-77
2023/06/07 07:21:56;;;;;;;6.05;1.83;;;19.50;99.90;;;19.24;100.00;97742.06;5003540;28;20046;-78
2023/06/07 07:24:23;;;;;;;3.30;1.63;;;19.70;99.90;;;19.28;100.00;97740.91;5003366;28;20052;-75
2023/06/07 07:26:51;;;;;;;4.90;2.00;;;19.80;99.90;;;19.43;100.00;97747.66;4967313;28;20050;-77
2023/06/07 07:29:18;;;;;;;4.38;1.80;;;20.00;99.90;;;19.82;100.00;97742.09;5001808;28;20215;-76
2023/06/07 07:31:45;;;;;;;4.63;2.08;;;20.10;99.90;;;19.76;100.00;97746.03;4988220;28;20416;-76
2023/06/07 07:34:12;;;;;;;5.95;1.60;;;20.20;99.90;;;19.98;100.00;97741.72;4977714;28;20190;-77
2023/06/07 07:36:40;;;;;;;3.63;1.60;;;20.40;99.90;;;20.04;100.00;97734.16;5006064;28;20099;-77
2023/06/07 07:39:07;;;;;;;4.22;1.83;;;20.50;99.90;;;19.54;100.00;97744.16;5002492;28;20053;-76
2023/06/07 07:41:40;;;;;;;5.03;1.80;;;20.70;99.90;;;19.73;100.00;97741.00;4983105;28;20073;-75
2023/06/07 07:44:07;;;;;;;4.10;1.80;;;20.60;99.90;;;19.70;100.00;97748.28;4991282;28;20057;-76
2023/06/07 07:46:36;;;;;;;3.85;2.05;;;20.50;99.90;;;19.83;100.00;97743.75;4990865;28;20057;-78
2023/06/07 07:49:03;;;;;;;5.95;2.20;;;20.40;99.90;;;19.83;100.00;97739.31;5008116;28;20529;-76
2023/06/07 07:51:30;;;;;;;6.57;2.00;;;20.50;99.90;;;20.02;100.00;97738.72;5004529;28;20046;-76
2023/06/07 07:53:57;;;;;;;4.15;2.15;;;20.70;99.90;;;19.75;100.00;97738.25;5005303;28;20121;-75
2023/06/07 07:56:24;;;;;;;5.43;1.92;;;20.60;99.90;;;19.81;100.00;97741.25;5003371;28;20096;-77
2023/06/07 07:58:53;;;;;;;3.55;1.90;;;20.60;99.90;;;19.94;100.00;97743.78;5005714;28;20153;-77
2023/06/07 08:01:22;;;;;;;4.47;2.10;;;20.60;99.90;;;19.98;100.00;97744.34;5003596;28;20053;-76
2023/06/07 08:03:49;;;;;;;5.18;1.88;;;20.60;99.90;;;20.35;100.00;97741.47;4967390;28;20050;-76
2023/06/07 08:06:16;;;;;;;3.70;2.08;;;20.70;99.90;;;20.45;100.00;97735.31;5003130;28;20491;-77
2023/06/07 08:08:49;;;;;;;4.35;2.00;;;21.00;99.90;;;20.12;100.00;97744.13;4989305;28;20478;-76
2023/06/07 08:11:16;;;;;;;3.75;1.98;;;21.00;99.90;;;20.22;100.00;97738.97;5004990;28;20049;-76
2023/06/07 08:13:43;;;;;;;4.13;2.40;;;21.00;99.90;;;20.08;100.00;97736.59;5010475;28;20693;-77
2023/06/07 08:16:11;;;;;;;5.55;2.30;;;21.00;99.90;;;20.44;100.00;97731.00;4991340;28;20123;-77
2023/06/07 08:18:38;;;;;;;8.32;2.47;;;21.10;99.90;;;20.67;100.00;97733.63;4984493;28;20947;-76
2023/06/07 08:21:05;;;;;;;3.50;2.47;;;21.30;99.90;;;20.81;100.00;97735.97;4995675;28;20056;-76
2023/06/07 08:23:32;;;;;;;5.22;2.35;;;21.30;99.90;;;20.97;100.00;97726.78;5006555;28;20054;-78
2023/06/07 08:26:02;;;;;;;3.65;2.28;;;21.40;99.90;;;21.12;100.00;97728.16;4970709;28;20057;-76
2023/06/07 08:28:29;;;;;;;4.85;2.38;;;21.60;99.90;;;21.03;100.00;97728.94;5008409;28;20065;-77
2023/06/07 08:30:56;;;;;;;8.23;2.40;;;21.70;99.90;;;21.04;100.00;97723.50;5001406;28;20050;-76
2023/06/07 08:33:23;;;;;;;3.55;2.13;;;21.70;99.90;;;21.06;100.00;97716.31;4983074;28;20054;-77
2023/06/07 08:35:50;;;;;;;5.28;2.50;;;21.70;99.90;;;21.34;100.00;97716.63;5002372;28;20081;-76
2023/06/07 08:38:17;;;;;;;5.97;2.78;;;21.80;99.90;;;22.10;100.00;97711.88;4981207;28;20088;-77
2023/06/07 08:40:45;;;;;;;5.55;2.58;;;21.90;99.90;;;22.52;100.00;97710.91;4979951;28;20057;-77
2023/06/07 08:43:12;;;;;;;6.53;2.63;;;22.20;99.90;;;22.46;100.00;97706.16;5001525;28;20052;-77
2023/06/07 08:45:39;;;;;;;6.15;2.40;;;22.30;99.90;;;22.55;100.00;97705.31;4973343;28;20132;-78
2023/06/07 08:48:12;;;;;;;8.45;2.50;;;22.30;99.90;;;23.10;100.00;97697.69;5008914;28;20518;-77
2023/06/07 08:50:42;;;;;;;4.20;2.03;;;22.60;99.90;;;22.65;100.00;97700.03;4996890;28;20074;-78
2023/06/07 08:53:16;;;;;;;7.15;2.55;;;22.80;99.90;;;23.41;100.00;97700.16;5009441;28;20597;-78
2023/06/07 08:55:44;;;;;;;;;;;23.10;99.90;;;23.25;100.00;97700.75;5012051;28;20081;-78
2023/06/07 08:58:11;;;;;;;6.78;2.55;;;23.50;99.90;;;24.52;100.00;97701.13;4991191;28;20026;-77
2023/06/07 09:00:39;;;;;;;10.10;2.55;;;23.90;99.90;;;25.08;100.00;97700.94;4980429;28;20108;-77
2023/06/07 09:03:06;;;;;;;5.80;2.42;;;24.50;99.60;;;23.99;100.00;97709.75;4979727;28;20073;-77
2023/06/07 09:05:34;;;;;;;4.97;2.38;;;25.10;98.20;;;23.92;100.00;97701.53;4984489;28;20046;-77
2023/06/07 09:08:02;;;;;;;4.95;2.50;;;25.00;97.60;;;24.34;100.00;97703.72;4985362;28;20046;-78
2023/06/07 09:10:30;;;;;;;3.55;1.90;;;25.40;96.60;;;24.99;100.00;97705.34;4970982;28;20555;-77
2023/06/07 09:12:57;;;;;;;4.07;2.47;;;25.60;96.60;;;24.67;100.00;97706.72;4987101;28;20042;-79
2023/06/07 09:15:24;;;;;;;3.65;1.70;;;26.00;95.90;;;25.94;100.00;97697.56;4982401;28;20163;-78
2023/06/07 09:18:04;;;;;;;4.50;2.10;;;26.40;95.50;;;24.75;100.00;97696.19;4991714;28;20148;-78
2023/06/07 09:20:31;;;;;;;4.03;1.92;;;27.00;94.20;;;24.26;100.00;97703.59;4991747;28;20045;-79
2023/06/07 09:23:19;;;;;;;3.50;1.73;;;;;;;24.38;100.00;97696.28;4982906;28;20069;-80
2023/06/07 09:25:53;;;;;;;4.95;1.95;;;26.50;93.50;;;23.57;100.00;97697.75;4985991;28;20137;-78
2023/06/07 09:28:21;;;;;;;6.70;2.20;;;25.50;94.30;;;23.60;100.00;97707.22;4998755;28;20053;-77
2023/06/07 09:30:57;;;;;;;3.67;2.20;;;24.70;95.20;;;24.07;100.00;97706.38;4980008;28;20046;-79
2023/06/07 09:33:35;;;;;;;5.00;2.13;;;24.80;95.80;;;25.04;100.00;97695.97;4968956;28;20132;-78
2023/06/07 09:36:06;;;;;;;4.93;2.15;;;25.40;95.30;;;25.65;100.00;97701.38;4987524;28;20532;-78
2023/06/07 09:38:37;;;;;;;3.80;2.35;;;26.50;94.30;;;25.66;100.00;97692.41;5001253;28;20047;-79
2023/06/07 09:41:06;;;;;;;4.80;2.15;;;27.30;92.80;;;25.84;100.00;97695.84;4985987;28;20046;-78
2023/06/07 09:43:50;;;;;;;5.80;2.47;;;27.80;92.70;;;25.95;100.00;97700.06;4982284;28;20054;-78
2023/06/07 09:46:21;;;;;;;5.55;2.22;;;27.30;92.30;;;25.23;100.00;97696.78;4993357;28;20050;-78
2023/06/07 09:48:53;;;;;;;7.18;2.40;;;26.90;92.10;;;24.78;100.00;97701.19;4997166;28;20105;-77
2023/06/07 09:51:21;;;;;;;3.75;2.13;;;26.40;92.20;;;24.42;100.00;97701.13;4985603;28;20046;-77
2023/06/07 09:54:05;;;;;;;4.32;2.30;;;25.90;92.40;;;24.55;100.00;97703.47;4990771;28;20045;-77
2023/06/07 09:56:32;;;;;;;4.22;2.08;;;25.80;92.80;;;24.46;100.00;97699.03;5002045;28;20164;-77
2023/06/07 09:59:14;;;;;;;2.55;1.65;;;25.90;92.80;;;25.98;100.00;97696.22;5003650;28;20077;-78
2023/06/07 10:01:47;;;;;;;;;;;26.70;92.30;;;26.32;100.00;97690.91;4986794;28;20048;-77
2023/06/07 10:04:14;;;;;;;7.13;2.38;;;27.40;90.90;;;27.48;100.00;97680.19;4986171;28;19929;-80
2023/06/07 10:06:44;;;;;;;6.05;2.22;;;28.00;90.90;;;26.26;100.00;97684.38;5000506;28;20059;-79
2023/06/07 10:09:12;;;;;;;3.60;2.03;;;27.50;90.00;;;24.70;100.00;97681.69;5001005;28;20061;-78
2023/06/07 10:11:44;;;;;;;4.55;2.03;;;26.60;90.60;;;23.89;100.00;97693.06;4986301;28;20057;-78
2023/06/07 10:14:14;;;;;;;3.83;2.13;;;25.80;91.90;;;25.28;100.00;97677.72;5002730;28;20052;-79
2023/06/07 10:16:48;;;;;;;5.70;2.40;;;26.10;92.00;;;25.50;100.00;97671.91;4996726;28;20094;-79
2023/06/07 10:19:27;;;;;;;4.10;2.13;;;26.60;91.80;;;24.76;100.00;97673.97;4984841;28;20049;-78
2023/06/07 10:21:57;;;;;;;3.80;2.13;;;26.10;91.50;;;24.97;100.00;97663.00;5001506;28;20479;-79